Portada
METAR-TAF:

METAR-TAF

Aeropuertos :

Aeropuerto de Luxemburgo Findel

Luxemburgo, Luxemburgo

latitud: 49-37N, longitud: 006-13E, altitud: 376 m

Observación

El informe se hizo hace 19 minutos, a las 02:20 UTC
Viento 12 kt del norte-noreste
Temperatura 14°C
Humedad 67%
Presión 1030 hPa
Visibilidad 10 km o más

METAR: ELLX 280220Z AUTO 03012KT 9999 NCD 14/08 Q1030 NOSIG

Hora: 04:39 (02:39 UTC)

Pronóstico

El informe se hizo hace 3 horas y 39 minutos, a las 23:00 UTC
Pronóstico válido del 28 a las 00 UTC al 29 a las 06 UTC
Viento 8 kt del noreste
Visibilidad 10 km o más
sin nubes por debajo de 1500 m y sin presencia de cumulonimbus.
Temporalmente
del 28 a las 08 UTC al 28 a las 16 UTC
Viento 15 kt del noreste

TAF: ELLX 272300Z 2800/2906 04008KT CAVOK TEMPO 2808/2816 04015KT

Observaciones y pronósticos meteorológicos de más de 4000 aeropuertos (mensajes METAR y TAF).

Los puntos amarillos y rojos representan las estaciones disponibles.

Ponga el ratón en el punto deseado para ver el nombre de la estación.

Haga clic para ver las observaciones y los pronósticos meteorológicos.

Para cambiar el mapa : haga clic en los botones verdes con una cruz de color negro para hacer un zoom, en el botón verde con un guión para alejar o en las flechas verdes para mapas adyacentes.


METAR-TAF: